Time;durP1;ratioP1;P1;durP2;ratioP2;P2;SDS_P1;SDS_P2;PMS_P1;PMS_P2;Temp;Humidity;BMP_temperature;BMP_pressure;BME280_temperature;BME280_humidity;BME280_pressure;Samples;Min_cycle;Max_cycle;Signal;HPM_P1;HPM_P2
2023/07/09 00:00:02;;;;;;;;;10.75;10.75;;;;;;;;2089065;28;45991;-51
2023/07/09 00:01:02;;;;;;;;;10.50;9.75;;;;;;;;2088218;28;46503;-52
2023/07/09 00:02:03;;;;;;;;;11.00;11.00;;;;;;;;2087811;28;46885;-52
2023/07/09 00:03:03;;;;;;;;;10.50;9.00;;;;;;;;2088019;28;45329;-53
2023/07/09 00:04:03;;;;;;;;;10.00;10.00;;;;;;;;2088530;28;46321;-52
2023/07/09 00:05:04;;;;;;;;;24.50;24.50;;;;;;;;2088010;28;47489;-53
2023/07/09 00:06:04;;;;;;;;;46.50;39.25;;;;;;;;2087208;28;46307;-51
2023/07/09 00:07:04;;;;;;;;;36.00;32.50;;;;;;;;2088411;28;46467;-51
2023/07/09 00:08:05;;;;;;;;;37.00;33.50;;;;;;;;2088555;28;46409;-50
2023/07/09 00:09:06;;;;;;;;;22.25;22.25;;;;;;;;2087676;28;46496;-51
2023/07/09 00:10:20;;;;;;;;;28.00;26.40;;;;;;;;2088113;28;45928;-51
2023/07/09 00:11:20;;;;;;;;;16.20;15.60;;;;;;;;2088193;28;46414;-50
2023/07/09 00:12:20;;;;;;;;;17.75;16.75;;;;;;;;2087966;28;45615;-51
2023/07/09 00:13:21;;;;;;;;;11.50;9.75;;;;;;;;2087954;28;46562;-50
2023/07/09 00:14:21;;;;;;;;;16.00;13.75;;;;;;;;2087470;28;46722;-52
2023/07/09 00:15:21;;;;;;;;;10.75;10.75;;;;;;;;2087007;28;46873;-53
2023/07/09 00:16:23;;;;;;;;;10.50;10.00;;;;;;;;2088032;28;46410;-50
2023/07/09 00:17:28;;;;;;;;;13.80;13.00;;;;;;;;2088135;28;47183;-49
2023/07/09 00:18:28;;;;;;;;;13.60;13.60;;;;;;;;2087870;28;47040;-51
2023/07/09 00:19:29;;;;;;;;;14.75;14.75;;;;;;;;2088053;28;46809;-49
2023/07/09 00:20:29;;;;;;;;;15.50;15.00;;;;;;;;2087695;28;46749;-49
2023/07/09 00:21:33;;;;;;;;;17.25;17.25;;;;;;;;2088100;28;46372;-51
2023/07/09 00:22:34;;;;;;;;;12.80;12.80;;;;;;;;2088422;28;46906;-48
2023/07/09 00:23:34;;;;;;;;;16.00;15.00;;;;;;;;2088296;28;46855;-52
2023/07/09 00:24:35;;;;;;;;;16.00;15.25;;;;;;;;2088446;28;46417;-50
2023/07/09 00:25:35;;;;;;;;;13.75;13.75;;;;;;;;2087788;28;46374;-52
2023/07/09 00:26:37;;;;;;;;;14.25;13.25;;;;;;;;2087280;28;46602;-49
2023/07/09 00:27:38;;;;;;;;;20.40;20.20;;;;;;;;2088259;28;46457;-53
2023/07/09 00:28:38;;;;;;;;;16.50;16.00;;;;;;;;2087878;28;46225;-52
2023/07/09 00:29:38;;;;;;;;;12.25;12.25;;;;;;;;2087534;28;46834;-51
2023/07/09 00:30:39;;;;;;;;;10.25;10.25;;;;;;;;2088147;28;46386;-48
2023/07/09 00:31:40;;;;;;;;;13.00;13.00;;;;;;;;2087511;28;46660;-50
2023/07/09 00:32:43;;;;;;;;;11.60;11.60;;;;;;;;2087566;28;47098;-53
2023/07/09 00:33:43;;;;;;;;;10.20;9.40;;;;;;;;2087268;28;46141;-51
2023/07/09 00:34:50;;;;;;;;;11.00;11.00;;;;;;;;2087210;28;46497;-52
2023/07/09 00:35:50;;;;;;;;;11.20;11.20;;;;;;;;2087643;28;46403;-49
2023/07/09 00:36:51;;;;;;;;;11.50;11.25;;;;;;;;2087811;28;46196;-51
2023/07/09 00:37:51;;;;;;;;;13.25;12.00;;;;;;;;2087993;28;46923;-53
2023/07/09 00:38:51;;;;;;;;;11.75;11.75;;;;;;;;2087551;28;47046;-53
2023/07/09 00:39:51;;;;;;;;;12.75;12.75;;;;;;;;2087809;28;46332;-50
2023/07/09 00:41:02;;;;;;;;;13.75;13.25;;;;;;;;2087658;28;47196;-49
2023/07/09 00:42:02;;;;;;;;;15.00;14.80;;;;;;;;2085313;28;47037;-51
2023/07/09 00:43:12;;;;;;;;;15.00;15.00;;;;;;;;2091419;28;46321;-50
2023/07/09 00:44:29;;;;;;;;;11.20;11.20;;;;;;;;2094244;28;46692;-50
2023/07/09 00:45:32;;;;;;;;;12.40;12.40;;;;;;;;2087729;28;46775;-54
2023/07/09 00:46:32;;;;;;;;;11.00;11.00;;;;;;;;2087636;28;46772;-49
2023/07/09 00:47:47;;;;;;;;;18.25;18.25;;;;;;;;2087738;28;46607;-50
2023/07/09 00:48:59;;;;;;;;;12.60;12.60;;;;;;;;2087754;28;46527;-52
2023/07/09 00:50:01;;;;;;;;;13.80;13.80;;;;;;;;2088411;28;45842;-49
2023/07/09 00:51:09;;;;;;;;;11.80;11.80;;;;;;;;2087307;28;46494;-50
2023/07/09 00:52:22;;;;;;;;;11.80;11.20;;;;;;;;2087263;28;46444;-51
2023/07/09 00:53:25;;;;;;;;;15.00;14.40;;;;;;;;2087836;28;46326;-51
2023/07/09 00:54:30;;;;;;;;;12.00;12.00;;;;;;;;2087457;28;46928;-50
2023/07/09 00:55:32;;;;;;;;;11.40;11.40;;;;;;;;2077882;28;46937;-53
2023/07/09 00:56:37;;;;;;;;;14.60;14.60;;;;;;;;2078749;28;46932;-52
2023/07/09 00:57:38;;;;;;;;;10.80;10.80;;;;;;;;2087364;28;46700;-53
2023/07/09 00:58:39;;;;;;;;;14.00;12.00;;;;;;;;2087435;28;46887;-53
2023/07/09 00:59:40;;;;;;;;;10.60;10.60;;;;;;;;2087677;28;46356;-51
2023/07/09 01:00:47;;;;;;;;;10.80;10.80;;;;;;;;2086777;28;47018;-49
2023/07/09 01:01:49;;;;;;;;;11.60;11.60;;;;;;;;2087976;28;47310;-52
2023/07/09 01:02:50;;;;;;;;;11.60;10.00;;;;;;;;2086858;28;46426;-52
2023/07/09 01:03:53;;;;;;;;;15.00;14.00;;;;;;;;2078908;28;46741;-49
2023/07/09 01:04:56;;;;;;;;;11.00;10.60;;;;;;;;2087415;28;46343;-49
2023/07/09 01:05:57;;;;;;;;;11.80;11.80;;;;;;;;2086838;28;46892;-51
2023/07/09 01:06:58;;;;;;;;;13.50;13.50;;;;;;;;2087609;28;46023;-51
2023/07/09 01:07:58;;;;;;;;;10.00;10.00;;;;;;;;2088037;28;46805;-50
2023/07/09 01:09:00;;;;;;;;;13.75;12.50;;;;;;;;2087628;28;46485;-49
2023/07/09 01:10:01;;;;;;;;;12.20;10.80;;;;;;;;2087940;28;46231;-50
2023/07/09 01:11:01;;;;;;;;;13.25;12.50;;;;;;;;2087349;28;46838;-51
2023/07/09 01:12:06;;;;;;;;;13.75;13.75;;;;;;;;2086399;28;46329;-48
2023/07/09 01:13:08;;;;;;;;;13.60;13.60;;;;;;;;2085334;28;46665;-52
2023/07/09 01:14:10;;;;;;;;;14.60;14.00;;;;;;;;2094099;28;46756;-51
2023/07/09 01:15:11;;;;;;;;;11.20;11.20;;;;;;;;2096629;28;46884;-52
2023/07/09 01:16:11;;;;;;;;;9.60;9.60;;;;;;;;2088976;28;46138;-51
2023/07/09 01:17:11;;;;;;;;;11.75;11.75;;;;;;;;2088499;28;46522;-48
2023/07/09 01:18:13;;;;;;;;;12.00;12.00;;;;;;;;2088275;28;46820;-47
2023/07/09 01:19:16;;;;;;;;;11.80;11.00;;;;;;;;2088866;28;45953;-48
2023/07/09 01:20:20;;;;;;;;;11.60;10.20;;;;;;;;2089254;28;46423;-49
2023/07/09 01:21:20;;;;;;;;;10.80;9.80;;;;;;;;2089116;28;46944;-49
2023/07/09 01:22:21;;;;;;;;;11.00;11.00;;;;;;;;2089124;28;46774;-50
2023/07/09 01:23:22;;;;;;;;;13.25;12.00;;;;;;;;2088917;28;46064;-51
2023/07/09 01:24:41;;;;;;;;;12.60;12.60;;;;;;;;2089295;28;46439;-51
2023/07/09 01:25:44;;;;;;;;;10.40;10.40;;;;;;;;2089006;28;46896;-53
2023/07/09 01:26:45;;;;;;;;;13.80;13.80;;;;;;;;2088430;28;47016;-50
2023/07/09 01:27:46;;;;;;;;;10.75;10.75;;;;;;;;2089051;28;45004;-51
2023/07/09 01:28:46;;;;;;;;;14.25;12.75;;;;;;;;2088871;28;46447;-52
2023/07/09 01:29:48;;;;;;;;;11.75;11.00;;;;;;;;2089089;28;46444;-52
2023/07/09 01:30:53;;;;;;;;;10.00;8.80;;;;;;;;2087898;28;46662;-51
2023/07/09 01:31:56;;;;;;;;;13.60;13.40;;;;;;;;2089301;28;46240;-52
2023/07/09 01:32:57;;;;;;;;;12.60;11.00;;;;;;;;2089159;28;46697;-53
2023/07/09 01:33:58;;;;;;;;;14.60;13.60;;;;;;;;2088852;28;46727;-49
2023/07/09 01:35:00;;;;;;;;;10.25;10.25;;;;;;;;2088559;28;46670;-51
2023/07/09 01:36:00;;;;;;;;;8.60;8.20;;;;;;;;2089305;28;46884;-48
2023/07/09 01:37:00;;;;;;;;;12.25;12.25;;;;;;;;2088991;28;46869;-48
2023/07/09 01:38:01;;;;;;;;;10.00;10.00;;;;;;;;2089149;28;45187;-48
2023/07/09 01:39:01;;;;;;;;;14.00;12.50;;;;;;;;2088887;28;46860;-47
2023/07/09 01:40:04;;;;;;;;;12.50;12.00;;;;;;;;2088976;28;46852;-53
2023/07/09 01:41:05;;;;;;;;;12.00;11.40;;;;;;;;2088521;28;46366;-48
2023/07/09 01:42:06;;;;;;;;;10.75;10.75;;;;;;;;2088993;28;47249;-49
2023/07/09 01:43:06;;;;;;;;;11.00;10.80;;;;;;;;2089500;28;46444;-49
2023/07/09 01:44:07;;;;;;;;;10.00;10.00;;;;;;;;2088820;28;46444;-49
2023/07/09 01:45:09;;;;;;;;;12.75;11.50;;;;;;;;2088627;28;46740;-49
2023/07/09 01:46:12;;;;;;;;;11.20;10.80;;;;;;;;2088999;28;46888;-49
2023/07/09 01:47:12;;;;;;;;;11.00;10.20;;;;;;;;2088627;28;46985;-50
2023/07/09 01:48:15;;;;;;;;;11.75;11.75;;;;;;;;2087837;28;46429;-48
2023/07/09 01:49:16;;;;;;;;;12.60;12.40;;;;;;;;2089110;28;46750;-49
2023/07/09 01:50:18;;;;;;;;;13.60;12.40;;;;;;;;2088707;28;45676;-49
2023/07/09 01:51:18;;;;;;;;;12.60;12.60;;;;;;;;2087700;28;46797;-48
2023/07/09 01:52:19;;;;;;;;;13.75;12.25;;;;;;;;2087813;28;46789;-50
2023/07/09 01:53:25;;;;;;;;;10.00;10.00;;;;;;;;2088446;28;46551;-48
2023/07/09 01:54:25;;;;;;;;;13.80;11.80;;;;;;;;2088745;28;45646;-51
2023/07/09 01:55:26;;;;;;;;;11.50;11.50;;;;;;;;2088730;28;46427;-50
2023/07/09 01:56:26;;;;;;;;;14.00;12.00;;;;;;;;2088493;28;46837;-50
2023/07/09 01:57:32;;;;;;;;;10.25;10.25;;;;;;;;2088953;28;46462;-50
2023/07/09 01:58:33;;;;;;;;;10.20;10.20;;;;;;;;2088798;28;46644;-50
2023/07/09 01:59:41;;;;;;;;;8.75;8.75;;;;;;;;2088632;28;46677;-49
2023/07/09 02:00:41;;;;;;;;;11.00;11.00;;;;;;;;2088419;28;47238;-48
2023/07/09 02:01:42;;;;;;;;;13.75;13.75;;;;;;;;2088870;28;46155;-48
2023/07/09 02:02:43;;;;;;;;;10.75;10.75;;;;;;;;2088438;28;46596;-49
2023/07/09 02:03:43;;;;;;;;;10.40;10.40;;;;;;;;2088108;28;45640;-48
2023/07/09 02:04:52;;;;;;;;;9.00;9.00;;;;;;;;2088759;28;46452;-49
2023/07/09 02:05:52;;;;;;;;;9.40;9.40;;;;;;;;2088415;28;46470;-48
2023/07/09 02:06:53;;;;;;;;;9.75;9.75;;;;;;;;2089061;28;46527;-49
2023/07/09 02:07:53;;;;;;;;;11.25;10.50;;;;;;;;2088642;28;46861;-48
2023/07/09 02:08:54;;;;;;;;;10.75;10.75;;;;;;;;2088924;28;46846;-50
2023/07/09 02:09:54;;;;;;;;;10.50;10.50;;;;;;;;2088910;28;46431;-47
2023/07/09 02:10:54;;;;;;;;;9.75;9.25;;;;;;;;2088448;28;46146;-49
2023/07/09 02:11:54;;;;;;;;;9.50;9.50;;;;;;;;2089030;28;46722;-49
2023/07/09 02:12:54;;;;;;;;;9.75;9.75;;;;;;;;2088096;28;46598;-48
2023/07/09 02:13:54;;;;;;;;;10.75;10.00;;;;;;;;2088195;28;46797;-50
2023/07/09 02:14:55;;;;;;;;;11.25;10.00;;;;;;;;2087718;28;46469;-48
2023/07/09 02:15:55;;;;;;;;;12.50;11.50;;;;;;;;2088105;28;46869;-48
2023/07/09 02:16:55;;;;;;;;;8.50;8.50;;;;;;;;2080157;28;46054;-48
2023/07/09 02:17:55;;;;;;;;;8.25;8.25;;;;;;;;2087421;28;46506;-49
2023/07/09 02:18:55;;;;;;;;;11.00;9.75;;;;;;;;2088122;28;46787;-51
2023/07/09 02:19:55;;;;;;;;;10.50;10.50;;;;;;;;2088902;28;46471;-51
2023/07/09 02:20:56;;;;;;;;;9.50;9.50;;;;;;;;2087958;28;46698;-51
2023/07/09 02:21:59;;;;;;;;;9.00;9.00;;;;;;;;2088278;28;46443;-50
2023/07/09 02:22:59;;;;;;;;;10.00;8.60;;;;;;;;2088452;28;46480;-49
2023/07/09 02:23:59;;;;;;;;;8.50;8.50;;;;;;;;2089185;28;46673;-52
2023/07/09 02:25:00;;;;;;;;;10.00;10.00;;;;;;;;2088329;28;46439;-48
2023/07/09 02:26:00;;;;;;;;;7.75;7.75;;;;;;;;2088731;28;46728;-53
2023/07/09 02:27:01;;;;;;;;;9.00;8.50;;;;;;;;2087962;28;46233;-52
2023/07/09 02:28:01;;;;;;;;;10.60;10.60;;;;;;;;2088236;28;46972;-48
2023/07/09 02:29:01;;;;;;;;;8.50;8.50;;;;;;;;2088583;28;46434;-47
2023/07/09 02:30:02;;;;;;;;;8.50;8.50;;;;;;;;2088585;28;46922;-52
2023/07/09 02:31:02;;;;;;;;;11.25;11.25;;;;;;;;2088723;28;46885;-51
2023/07/09 02:32:03;;;;;;;;;10.00;10.00;;;;;;;;2088333;28;46406;-51
2023/07/09 02:33:03;;;;;;;;;8.00;8.00;;;;;;;;2088436;28;46266;-52
2023/07/09 02:34:03;;;;;;;;;9.75;9.75;;;;;;;;2087688;28;46262;-52
2023/07/09 02:35:04;;;;;;;;;12.75;12.75;;;;;;;;2087359;28;46611;-49
2023/07/09 02:36:04;;;;;;;;;9.50;9.50;;;;;;;;2087079;28;45622;-50
2023/07/09 02:37:05;;;;;;;;;9.00;8.00;;;;;;;;2087618;28;47069;-49
2023/07/09 02:38:05;;;;;;;;;10.25;10.25;;;;;;;;2087558;28;45623;-50
2023/07/09 02:39:05;;;;;;;;;11.25;10.75;;;;;;;;2086729;28;45383;-51
2023/07/09 02:40:07;;;;;;;;;9.25;9.25;;;;;;;;2087519;28;46705;-52
2023/07/09 02:41:07;;;;;;;;;8.00;8.00;;;;;;;;2087046;28;46699;-51
2023/07/09 02:42:11;;;;;;;;;3.75;3.75;;;;;;;;2087707;28;46984;-53
2023/07/09 02:43:11;;;;;;;;;9.40;8.80;;;;;;;;2087667;28;46874;-52
2023/07/09 02:44:12;;;;;;;;;11.75;9.75;;;;;;;;2087253;28;45970;-51
2023/07/09 02:45:12;;;;;;;;;9.75;8.75;;;;;;;;2087249;28;46790;-50
2023/07/09 02:46:12;;;;;;;;;9.25;8.50;;;;;;;;2087365;28;46196;-53
2023/07/09 02:47:13;;;;;;;;;9.50;9.50;;;;;;;;2087334;28;46485;-50
2023/07/09 02:48:13;;;;;;;;;7.00;7.00;;;;;;;;2087340;28;46541;-51
2023/07/09 02:49:14;;;;;;;;;8.50;8.25;;;;;;;;2087853;28;46332;-51
2023/07/09 02:50:14;;;;;;;;;8.00;8.00;;;;;;;;2087250;28;46318;-50
2023/07/09 02:51:15;;;;;;;;;9.00;9.00;;;;;;;;2087864;28;46927;-50
2023/07/09 02:52:15;;;;;;;;;9.25;9.25;;;;;;;;2087210;28;47042;-53
2023/07/09 02:53:15;;;;;;;;;11.25;10.25;;;;;;;;2087384;28;46431;-49
2023/07/09 02:54:16;;;;;;;;;8.00;7.75;;;;;;;;2079182;28;46852;-54
2023/07/09 02:55:16;;;;;;;;;9.00;8.25;;;;;;;;2078237;28;46406;-51
2023/07/09 02:56:16;;;;;;;;;9.50;9.00;;;;;;;;2086807;28;46610;-50
2023/07/09 02:57:16;;;;;;;;;10.00;10.00;;;;;;;;2087314;28;46568;-48
2023/07/09 02:58:17;;;;;;;;;10.75;9.50;;;;;;;;2087324;28;46708;-50
2023/07/09 02:59:17;;;;;;;;;11.00;10.50;;;;;;;;2087938;28;46704;-51
2023/07/09 03:00:17;;;;;;;;;12.00;12.00;;;;;;;;2087487;28;46444;-50
2023/07/09 03:01:20;;;;;;;;;12.50;11.25;;;;;;;;2070343;28;46267;-51
2023/07/09 03:02:20;;;;;;;;;11.40;9.00;;;;;;;;2063154;28;45371;-49
2023/07/09 03:03:21;;;;;;;;;9.50;9.50;;;;;;;;2078933;28;46459;-48
2023/07/09 03:04:21;;;;;;;;;9.25;9.25;;;;;;;;2087166;28;46278;-49
2023/07/09 03:05:21;;;;;;;;;9.75;9.75;;;;;;;;2087368;28;46881;-50
2023/07/09 03:06:22;;;;;;;;;10.25;10.25;;;;;;;;2088091;28;46313;-50
2023/07/09 03:07:22;;;;;;;;;9.00;9.00;;;;;;;;2088007;28;46510;-48
2023/07/09 03:08:22;;;;;;;;;11.00;9.25;;;;;;;;2088530;28;46531;-48
2023/07/09 03:09:23;;;;;;;;;9.25;8.25;;;;;;;;2088003;28;46827;-49
2023/07/09 03:10:23;;;;;;;;;10.00;8.75;;;;;;;;2088512;28;46485;-49
2023/07/09 03:11:23;;;;;;;;;9.75;9.75;;;;;;;;2088309;28;46711;-49
2023/07/09 03:12:23;;;;;;;;;8.75;8.75;;;;;;;;2088091;28;46143;-52
2023/07/09 03:13:24;;;;;;;;;10.75;10.00;;;;;;;;2087499;28;46080;-50
2023/07/09 03:14:24;;;;;;;;;11.75;11.75;;;;;;;;2087912;28;46773;-51
2023/07/09 03:15:24;;;;;;;;;11.00;11.00;;;;;;;;2094603;28;46778;-52
2023/07/09 03:16:28;;;;;;;;;11.00;11.00;;;;;;;;2079701;28;46579;-48
2023/07/09 03:17:29;;;;;;;;;11.40;11.40;;;;;;;;2083788;28;46373;-50
2023/07/09 03:18:29;;;;;;;;;9.00;9.00;;;;;;;;2088432;28;46808;-47
2023/07/09 03:19:29;;;;;;;;;10.25;10.25;;;;;;;;2088028;28;46438;-51
2023/07/09 03:20:29;;;;;;;;;11.00;10.75;;;;;;;;2088518;28;46803;-50
2023/07/09 03:21:30;;;;;;;;;12.25;12.25;;;;;;;;2088534;28;46583;-53
2023/07/09 03:22:30;;;;;;;;;14.25;12.25;;;;;;;;2088391;28;46362;-51
2023/07/09 03:23:30;;;;;;;;;13.25;13.25;;;;;;;;2088052;28;46345;-48
2023/07/09 03:24:30;;;;;;;;;12.00;12.00;;;;;;;;2088287;28;46457;-49
2023/07/09 03:25:31;;;;;;;;;12.75;12.00;;;;;;;;2087961;28;46372;-49
2023/07/09 03:26:31;;;;;;;;;11.75;10.00;;;;;;;;2088348;28;46030;-52
2023/07/09 03:27:31;;;;;;;;;10.00;10.00;;;;;;;;2087999;28;46749;-48
2023/07/09 03:28:32;;;;;;;;;13.75;13.75;;;;;;;;2086835;28;46285;-48
2023/07/09 03:29:32;;;;;;;;;13.25;13.25;;;;;;;;2087701;28;46424;-48
2023/07/09 03:30:33;;;;;;;;;12.00;12.00;;;;;;;;2088336;28;46021;-48
2023/07/09 03:31:34;;;;;;;;;10.00;8.50;;;;;;;;2088636;28;46663;-48
2023/07/09 03:32:35;;;;;;;;;14.20;14.20;;;;;;;;2088036;28;46962;-47
2023/07/09 03:33:35;;;;;;;;;13.25;13.25;;;;;;;;2088427;28;46644;-49
2023/07/09 03:34:35;;;;;;;;;12.75;12.75;;;;;;;;2088217;28;46547;-49
2023/07/09 03:35:36;;;;;;;;;10.50;10.50;;;;;;;;2087858;28;46619;-50
2023/07/09 03:36:39;;;;;;;;;15.40;14.60;;;;;;;;2087419;28;46705;-50
2023/07/09 03:37:39;;;;;;;;;11.80;11.80;;;;;;;;2088275;28;46720;-48
2023/07/09 03:38:40;;;;;;;;;11.25;11.25;;;;;;;;2088519;28;46278;-52
2023/07/09 03:39:40;;;;;;;;;11.25;11.25;;;;;;;;2088290;28;46333;-55
2023/07/09 03:40:40;;;;;;;;;11.75;11.00;;;;;;;;2088358;28;46802;-50
2023/07/09 03:41:40;;;;;;;;;10.50;10.00;;;;;;;;2088585;28;45781;-47
2023/07/09 03:42:41;;;;;;;;;11.00;10.25;;;;;;;;2088178;28;46128;-49
2023/07/09 03:43:41;;;;;;;;;10.75;10.75;;;;;;;;2087962;28;46275;-49
2023/07/09 03:44:41;;;;;;;;;11.00;11.00;;;;;;;;2087725;28;46828;-50
2023/07/09 03:45:43;;;;;;;;;11.00;11.00;;;;;;;;2087622;28;46666;-50
2023/07/09 03:46:43;;;;;;;;;12.20;12.00;;;;;;;;2088051;28;46369;-49
2023/07/09 03:47:43;;;;;;;;;12.50;12.25;;;;;;;;2088125;28;46479;-50
2023/07/09 03:48:44;;;;;;;;;12.00;12.00;;;;;;;;2088180;28;46114;-51
2023/07/09 03:49:44;;;;;;;;;10.75;10.75;;;;;;;;2088051;28;46382;-48
2023/07/09 03:50:45;;;;;;;;;10.00;10.00;;;;;;;;2087859;28;46184;-50
2023/07/09 03:51:45;;;;;;;;;9.20;8.20;;;;;;;;2088162;28;46375;-51
2023/07/09 03:52:45;;;;;;;;;12.00;12.00;;;;;;;;2087851;28;46001;-46
2023/07/09 03:53:45;;;;;;;;;11.00;11.00;;;;;;;;2088440;28;46587;-48
2023/07/09 03:54:46;;;;;;;;;10.75;10.75;;;;;;;;2087610;28;46429;-48
2023/07/09 03:55:50;;;;;;;;;12.00;10.00;;;;;;;;2079093;28;46319;-47
2023/07/09 03:56:51;;;;;;;;;11.00;11.00;;;;;;;;2087406;28;46231;-47
2023/07/09 03:57:51;;;;;;;;;11.50;9.75;;;;;;;;2088089;28;46772;-50
2023/07/09 03:58:51;;;;;;;;;10.00;10.00;;;;;;;;2087823;28;46352;-53
2023/07/09 03:59:51;;;;;;;;;13.75;11.50;;;;;;;;2087942;28;46945;-52
2023/07/09 04:00:53;;;;;;;;;13.00;11.75;;;;;;;;2088197;28;46462;-50
2023/07/09 04:01:54;;;;;;;;;9.20;9.20;;;;;;;;2088357;28;46697;-46
2023/07/09 04:02:56;;;;;;;;;10.25;10.25;;;;;;;;2086776;28;46993;-47
2023/07/09 04:03:56;;;;;;;;;11.60;11.00;;;;;;;;2087937;28;46426;-48
2023/07/09 04:04:56;;;;;;;;;12.25;12.25;;;;;;;;2088107;28;46634;-46
2023/07/09 04:05:57;;;;;;;;;10.25;10.25;;;;;;;;2087780;28;45459;-47
2023/07/09 04:06:57;;;;;;;;;10.75;10.00;;;;;;;;2088118;28;46242;-46
2023/07/09 04:07:57;;;;;;;;;12.00;11.75;;;;;;;;2087751;28;46805;-48
2023/07/09 04:08:57;;;;;;;;;10.50;10.50;;;;;;;;2087913;28;46512;-50
2023/07/09 04:09:57;;;;;;;;;14.00;12.00;;;;;;;;2087699;28;46105;-50
2023/07/09 04:11:02;;;;;;;;;6.75;6.50;;;;;;;;2087636;28;46831;-52
2023/07/09 04:12:02;;;;;;;;;10.20;10.20;;;;;;;;2088092;28;46547;-50
2023/07/09 04:13:03;;;;;;;;;6.50;6.50;;;;;;;;2088131;28;46669;-50
2023/07/09 04:14:03;;;;;;;;;11.00;11.00;;;;;;;;2088284;28;46954;-49
2023/07/09 04:15:04;;;;;;;;;10.25;10.00;;;;;;;;2087974;28;46167;-48
2023/07/09 04:16:04;;;;;;;;;6.00;6.00;;;;;;;;2088093;28;46678;-49
2023/07/09 04:17:04;;;;;;;;;13.00;12.50;;;;;;;;2094977;28;45769;-50
2023/07/09 04:18:05;;;;;;;;;10.00;10.00;;;;;;;;2095159;28;46289;-49
2023/07/09 04:19:05;;;;;;;;;11.50;9.75;;;;;;;;2088470;28;46632;-50
2023/07/09 04:20:07;;;;;;;;;13.50;11.75;;;;;;;;2087105;28;46326;-60
2023/07/09 04:21:08;;;;;;;;;10.40;10.00;;;;;;;;2088009;28;46291;-47
2023/07/09 04:22:10;;;;;;;;;11.75;11.75;;;;;;;;2088355;28;45550;-45
2023/07/09 04:23:11;;;;;;;;;9.00;9.00;;;;;;;;2086737;28;46743;-48
2023/07/09 04:24:11;;;;;;;;;11.75;10.75;;;;;;;;2085448;28;46372;-45
2023/07/09 04:25:11;;;;;;;;;10.00;10.00;;;;;;;;2086735;28;46585;-46
2023/07/09 04:26:15;;;;;;;;;10.25;10.25;;;;;;;;2086599;28;46693;-46
2023/07/09 04:27:15;;;;;;;;;12.00;10.00;;;;;;;;2087296;28;46999;-48
2023/07/09 04:28:16;;;;;;;;;10.25;10.25;;;;;;;;2087382;28;47052;-45
2023/07/09 04:29:16;;;;;;;;;13.50;13.50;;;;;;;;2087995;28;46796;-49
2023/07/09 04:30:16;;;;;;;;;10.75;9.00;;;;;;;;2088052;28;46743;-45
2023/07/09 04:31:16;;;;;;;;;10.75;9.00;;;;;;;;2087759;28;45929;-46
2023/07/09 04:32:16;;;;;;;;;11.00;10.00;;;;;;;;2088324;28;46339;-47
2023/07/09 04:33:18;;;;;;;;;10.25;10.25;;;;;;;;2087408;28;46335;-45
2023/07/09 04:34:18;;;;;;;;;9.60;9.60;;;;;;;;2088205;28;45332;-45
2023/07/09 04:35:18;;;;;;;;;8.00;8.00;;;;;;;;2088055;28;46426;-46
2023/07/09 04:36:18;;;;;;;;;7.50;7.50;;;;;;;;2087625;28;46708;-48
2023/07/09 04:37:19;;;;;;;;;9.75;9.75;;;;;;;;2088079;28;46878;-44
2023/07/09 04:38:19;;;;;;;;;8.00;8.00;;;;;;;;2088195;28;45962;-45
2023/07/09 04:39:20;;;;;;;;;10.75;10.00;;;;;;;;2087909;28;46566;-45
2023/07/09 04:40:20;;;;;;;;;9.60;9.60;;;;;;;;2087736;28;46513;-46
2023/07/09 04:41:21;;;;;;;;;10.50;8.75;;;;;;;;2087601;28;46573;-44
2023/07/09 04:42:21;;;;;;;;;10.25;9.00;;;;;;;;2087203;28;46313;-43
2023/07/09 04:43:21;;;;;;;;;8.25;8.25;;;;;;;;2086698;28;45643;-44
2023/07/09 04:44:21;;;;;;;;;10.50;9.50;;;;;;;;2088082;28;46176;-45
2023/07/09 04:45:21;;;;;;;;;9.00;9.00;;;;;;;;2086944;28;45844;-46
2023/07/09 04:46:21;;;;;;;;;10.25;8.75;;;;;;;;2087465;28;46659;-44
2023/07/09 04:47:22;;;;;;;;;11.50;11.25;;;;;;;;2088011;28;46595;-46
2023/07/09 04:48:22;;;;;;;;;10.00;10.00;;;;;;;;2087662;28;46208;-48
2023/07/09 04:49:22;;;;;;;;;10.50;9.25;;;;;;;;2089253;28;46818;-49
2023/07/09 04:50:23;;;;;;;;;9.75;9.75;;;;;;;;2089657;28;46013;-50
2023/07/09 04:51:23;;;;;;;;;10.75;10.00;;;;;;;;2089178;28;46159;-50
2023/07/09 04:52:23;;;;;;;;;9.50;9.00;;;;;;;;2089217;28;46287;-45
2023/07/09 04:53:23;;;;;;;;;12.00;10.75;;;;;;;;2079114;28;48103;-45
2023/07/09 04:54:24;;;;;;;;;9.00;9.00;;;;;;;;2079789;28;46139;-48
2023/07/09 04:55:24;;;;;;;;;11.25;11.00;;;;;;;;2080095;28;46173;-47
2023/07/09 04:56:24;;;;;;;;;8.25;8.25;;;;;;;;2080101;28;45730;-46
2023/07/09 04:57:26;;;;;;;;;9.50;9.50;;;;;;;;2079987;28;46690;-46
2023/07/09 04:58:26;;;;;;;;;11.00;10.00;;;;;;;;2078070;28;45929;-46
2023/07/09 04:59:27;;;;;;;;;10.50;9.50;;;;;;;;2080444;28;46024;-47
2023/07/09 05:00:27;;;;;;;;;8.00;8.00;;;;;;;;2077620;28;46304;-46
2023/07/09 05:01:27;;;;;;;;;11.00;10.75;;;;;;;;2075682;28;45527;-48
2023/07/09 05:02:27;;;;;;;;;9.00;9.00;;;;;;;;2075785;28;46727;-48
2023/07/09 05:03:28;;;;;;;;;10.50;10.50;;;;;;;;2074198;28;46505;-47
2023/07/09 05:04:28;;;;;;;;;10.00;10.00;;;;;;;;2074866;28;46986;-46
2023/07/09 05:05:28;;;;;;;;;8.50;8.50;;;;;;;;2075227;28;46055;-45
2023/07/09 05:06:28;;;;;;;;;4.25;4.25;;;;;;;;2074699;28;46302;-45
2023/07/09 05:07:29;;;;;;;;;8.25;8.25;;;;;;;;2079541;28;46406;-44
2023/07/09 05:08:29;;;;;;;;;10.75;10.75;;;;;;;;2080060;28;45634;-47
2023/07/09 05:09:29;;;;;;;;;10.50;9.00;;;;;;;;2080271;28;45509;-46
2023/07/09 05:10:29;;;;;;;;;9.75;9.00;;;;;;;;2079454;28;46944;-47
2023/07/09 05:11:30;;;;;;;;;8.00;8.00;;;;;;;;2079798;28;45881;-49
2023/07/09 05:12:31;;;;;;;;;10.00;8.40;;;;;;;;2076348;28;46429;-47
2023/07/09 05:13:31;;;;;;;;;7.75;7.75;;;;;;;;2079059;28;46374;-47
2023/07/09 05:14:32;;;;;;;;;9.25;8.25;;;;;;;;2076754;28;46690;-47
2023/07/09 05:15:32;;;;;;;;;8.50;7.50;;;;;;;;2079820;28;46462;-47
2023/07/09 05:16:32;;;;;;;;;9.50;9.50;;;;;;;;2079250;28;46318;-49
2023/07/09 05:17:32;;;;;;;;;11.25;10.50;;;;;;;;2079998;28;45520;-47
2023/07/09 05:18:32;;;;;;;;;11.25;11.25;;;;;;;;2079319;28;46752;-45
2023/07/09 05:19:33;;;;;;;;;10.50;9.50;;;;;;;;2075413;28;46392;-46
2023/07/09 05:20:33;;;;;;;;;8.75;8.75;;;;;;;;2077673;28;46275;-48
2023/07/09 05:21:34;;;;;;;;;9.25;8.75;;;;;;;;2079734;28;46846;-46
2023/07/09 05:22:34;;;;;;;;;9.00;9.00;;;;;;;;2079532;28;46279;-46
2023/07/09 05:23:34;;;;;;;;;7.00;7.00;;;;;;;;2079412;28;46786;-45
2023/07/09 05:24:34;;;;;;;;;9.50;8.75;;;;;;;;2079887;28;46442;-45
2023/07/09 05:25:35;;;;;;;;;8.25;8.25;;;;;;;;2088307;28;46545;-45
2023/07/09 05:26:35;;;;;;;;;11.25;9.75;;;;;;;;2088705;28;46613;-46
2023/07/09 05:27:35;;;;;;;;;6.50;6.50;;;;;;;;2088680;28;47525;-47
2023/07/09 05:28:35;;;;;;;;;11.00;9.00;;;;;;;;2088151;28;46411;-51
2023/07/09 05:29:35;;;;;;;;;7.50;7.50;;;;;;;;2088312;28;46649;-48
2023/07/09 05:30:36;;;;;;;;;9.50;9.50;;;;;;;;2089301;28;45322;-47
2023/07/09 05:31:36;;;;;;;;;8.00;8.00;;;;;;;;2083664;28;46876;-46
2023/07/09 05:32:37;;;;;;;;;7.75;7.75;;;;;;;;2080597;28;46476;-46
2023/07/09 05:33:37;;;;;;;;;6.25;6.25;;;;;;;;2084372;28;47214;-46
2023/07/09 05:34:37;;;;;;;;;7.50;7.50;;;;;;;;2083368;28;46504;-45
2023/07/09 05:35:37;;;;;;;;;7.00;7.00;;;;;;;;2083694;28;46475;-48
2023/07/09 05:36:38;;;;;;;;;7.50;7.50;;;;;;;;2094185;28;46269;-48
2023/07/09 05:37:39;;;;;;;;;8.00;8.00;;;;;;;;2096246;28;46480;-47
2023/07/09 05:38:39;;;;;;;;;8.00;7.00;;;;;;;;2090746;28;46513;-48
2023/07/09 05:39:39;;;;;;;;;9.50;9.00;;;;;;;;2092825;28;46711;-47
2023/07/09 05:40:40;;;;;;;;;8.50;7.75;;;;;;;;2088756;28;46390;-45
2023/07/09 05:41:40;;;;;;;;;7.75;7.75;;;;;;;;2087040;28;46452;-49
2023/07/09 05:42:40;;;;;;;;;7.25;6.25;;;;;;;;2087745;28;46952;-49
2023/07/09 05:43:41;;;;;;;;;5.75;5.75;;;;;;;;2092596;28;46687;-47
2023/07/09 05:44:41;;;;;;;;;9.75;9.50;;;;;;;;2096411;28;45152;-50
2023/07/09 05:45:41;;;;;;;;;9.75;9.00;;;;;;;;2096364;28;46447;-49
2023/07/09 05:46:41;;;;;;;;;8.00;6.75;;;;;;;;2087608;28;46422;-48
2023/07/09 05:47:42;;;;;;;;;9.00;8.50;;;;;;;;2088216;28;47069;-48
2023/07/09 05:48:42;;;;;;;;;10.00;8.00;;;;;;;;2096385;28;44973;-49
2023/07/09 05:49:42;;;;;;;;;8.50;8.50;;;;;;;;2095570;28;46397;-47
2023/07/09 05:50:43;;;;;;;;;7.25;7.25;;;;;;;;2089984;28;46390;-48
2023/07/09 05:51:43;;;;;;;;;7.60;7.60;;;;;;;;2092623;28;45955;-47
2023/07/09 05:52:44;;;;;;;;;11.00;9.00;;;;;;;;2092720;28;46199;-45
2023/07/09 05:53:44;;;;;;;;;9.00;9.00;;;;;;;;2090790;28;46449;-46
2023/07/09 05:54:44;;;;;;;;;7.00;7.00;;;;;;;;2095676;28;46971;-47
2023/07/09 05:55:44;;;;;;;;;10.75;8.75;;;;;;;;2095736;28;46442;-47
2023/07/09 05:56:45;;;;;;;;;8.00;8.00;;;;;;;;2094670;28;46006;-45
2023/07/09 05:57:45;;;;;;;;;6.75;6.75;;;;;;;;2094979;28;46634;-44
2023/07/09 05:58:45;;;;;;;;;9.00;9.00;;;;;;;;2095115;28;45082;-48